Time,TemperatureF,DewpointF,PressureIn,WindDirection,WindDirectionDegrees,WindSpeedMPH,WindSpeedGustMPH,Humidity,HourlyPrecipIn,Conditions,Clouds,dailyrainin,SoftwareType,DateUTC
2013-03-20 00:02:00,36.0,19.0,30.18,WSW,240,9.0,-999.0,51,-99.99,,,-99.99,,2013-03-20 05:02:00,
2013-03-20 00:12:00,36.0,19.0,30.18,WSW,240,9.0,-999.0,51,-99.99,,,-99.99,,2013-03-20 05:12:00,
2013-03-20 00:22:00,36.0,21.0,30.17,WSW,250,12.0,-999.0,55,-99.99,,,-99.99,,2013-03-20 05:22:00,
2013-03-20 00:32:00,36.0,23.0,30.17,West,260,10.0,-999.0,59,-99.99,,,-99.99,,2013-03-20 05:32:00,
2013-03-20 00:42:00,36.0,23.0,30.17,West,260,10.0,-999.0,59,-99.99,,,-99.99,,2013-03-20 05:42:00,
2013-03-20 00:53:00,34.0,25.0,30.17,West,260,12.0,-999.0,69,-99.99,,,-99.99,,2013-03-20 05:53:00,
2013-03-20 01:02:00,36.0,25.0,30.17,West,260,12.0,-999.0,64,-99.99,,,-99.99,,2013-03-20 06:02:00,
2013-03-20 01:12:00,36.0,25.0,30.17,West,260,12.0,-999.0,64,-99.99,,,-99.99,,2013-03-20 06:12:00,
2013-03-20 01:22:00,34.0,25.0,30.18,West,280,10.0,-999.0,69,-99.99,,,-99.99,,2013-03-20 06:22:00,
2013-03-20 01:32:00,34.0,25.0,30.18,WNW,290,12.0,-999.0,69,-99.99,,,-99.99,,2013-03-20 06:32:00,
2013-03-20 01:42:00,34.0,25.0,30.18,NW,310,15.0,18.0,69,-99.99,,,-99.99,,2013-03-20 06:42:00,
2013-03-20 01:53:00,34.0,21.0,30.18,North,350,12.0,18.0,59,-99.99,,,-99.99,,2013-03-20 06:53:00,
2013-03-20 02:02:00,32.0,16.0,30.19,NNW,340,9.0,23.0,50,-99.99,,,-99.99,,2013-03-20 07:02:00,
2013-03-20 02:12:00,32.0,16.0,30.19,NNW,340,9.0,23.0,50,-99.99,,,-99.99,,2013-03-20 07:12:00,
2013-03-20 02:22:00,32.0,16.0,30.20,NNW,330,9.0,-999.0,50,-99.99,,,-99.99,,2013-03-20 07:22:00,
2013-03-20 02:32:00,30.0,18.0,30.20,NW,320,8.0,-999.0,59,-99.99,,,-99.99,,2013-03-20 07:32:00,
2013-03-20 02:42:00,30.0,18.0,30.20,NW,320,9.0,-999.0,59,-99.99,,,-99.99,,2013-03-20 07:42:00,
2013-03-20 02:52:00,30.0,18.0,30.20,NW,320,7.0,-999.0,59,-99.99,,,-99.99,,2013-03-20 07:52:00,
2013-03-20 03:02:00,30.0,18.0,30.19,NW,320,8.0,-999.0,59,-99.99,,,-99.99,,2013-03-20 08:02:00,
2013-03-20 03:12:00,30.0,18.0,30.19,NW,320,8.0,-999.0,59,-99.99,,,-99.99,,2013-03-20 08:12:00,
2013-03-20 03:22:00,30.0,18.0,30.20,NW,320,6.0,-999.0,59,-99.99,,,-99.99,,2013-03-20 08:22:00,
2013-03-20 03:32:00,30.0,18.0,30.20,NW,320,6.0,-999.0,59,-99.99,,,-99.99,,2013-03-20 08:32:00,
2013-03-20 03:42:00,28.0,18.0,30.20,NW,310,9.0,-999.0,63,-99.99,,,-99.99,,2013-03-20 08:42:00,
2013-03-20 03:52:00,28.0,18.0,30.20,NW,310,9.0,-999.0,63,-99.99,,,-99.99,,2013-03-20 08:52:00,
2013-03-20 04:02:00,30.0,18.0,30.20,NW,320,10.0,-999.0,59,-99.99,,,-99.99,,2013-03-20 09:02:00,
2013-03-20 04:12:00,30.0,18.0,30.20,NW,320,10.0,-999.0,59,-99.99,,,-99.99,,2013-03-20 09:12:00,
2013-03-20 04:22:00,28.0,18.0,30.19,NNW,330,13.0,-999.0,63,-99.99,,,-99.99,,2013-03-20 09:22:00,
2013-03-20 04:32:00,30.0,19.0,30.19,NNW,330,16.0,-999.0,63,-99.99,,,-99.99,,2013-03-20 09:32:00,
2013-03-20 04:43:00,28.0,19.0,30.20,NNW,330,16.0,-999.0,68,-99.99,,,-99.99,,2013-03-20 09:43:00,
2013-03-20 04:53:00,28.0,19.0,30.20,NNW,330,16.0,-999.0,68,-99.99,,,-99.99,,2013-03-20 09:53:00,
2013-03-20 05:03:00,28.0,19.0,30.20,NNW,340,13.0,17.0,68,-99.99,,,-99.99,,2013-03-20 10:03:00,
2013-03-20 05:12:00,28.0,19.0,30.20,NNW,340,13.0,17.0,68,-99.99,,,-99.99,,2013-03-20 10:12:00,
2013-03-20 05:22:00,28.0,18.0,30.21,NNW,340,17.0,23.0,63,-99.99,,,-99.99,,2013-03-20 10:22:00,
2013-03-20 05:32:00,28.0,16.0,30.21,NNW,330,18.0,23.0,58,-99.99,,,-99.99,,2013-03-20 10:32:00,
2013-03-20 05:42:00,27.0,16.0,30.21,NNW,330,16.0,23.0,63,-99.99,,,-99.99,,2013-03-20 10:42:00,
2013-03-20 05:53:00,27.0,16.0,30.22,NW,320,13.0,18.0,63,-99.99,,,-99.99,,2013-03-20 10:53:00,
2013-03-20 06:03:00,27.0,16.0,30.22,NW,320,13.0,18.0,63,-99.99,,,-99.99,,2013-03-20 11:03:00,
2013-03-20 06:12:00,27.0,16.0,30.22,NW,320,13.0,18.0,63,-99.99,,,-99.99,,2013-03-20 11:12:00,
2013-03-20 06:22:00,25.0,14.0,30.24,NNW,330,18.0,23.0,63,-99.99,,,-99.99,,2013-03-20 11:22:00,
2013-03-20 06:32:00,25.0,12.0,30.25,NNW,330,17.0,24.0,58,-99.99,,,-99.99,,2013-03-20 11:32:00,
2013-03-20 06:42:00,23.0,10.0,30.26,NNW,330,15.0,24.0,57,-99.99,,,-99.99,,2013-03-20 11:42:00,
2013-03-20 06:52:00,23.0,10.0,30.26,NW,320,14.0,21.0,57,-99.99,,,-99.99,,2013-03-20 11:52:00,
2013-03-20 07:02:00,23.0,10.0,30.27,NNW,330,15.0,21.0,57,-99.99,,,-99.99,,2013-03-20 12:02:00,
2013-03-20 07:12:00,23.0,10.0,30.27,NNW,330,15.0,21.0,57,-99.99,,,-99.99,,2013-03-20 12:12:00,
2013-03-20 07:22:00,23.0,10.0,30.27,NW,320,16.0,23.0,57,-99.99,,,-99.99,,2013-03-20 12:22:00,
2013-03-20 07:32:00,23.0,10.0,30.27,NW,320,16.0,23.0,57,-99.99,,,-99.99,,2013-03-20 12:32:00,
2013-03-20 07:42:00,21.0,10.0,30.28,NNW,340,14.0,17.0,62,-99.99,,,-99.99,,2013-03-20 12:42:00,
2013-03-20 07:52:00,21.0,9.0,30.28,NNW,340,10.0,17.0,57,-99.99,,,-99.99,,2013-03-20 12:52:00,
2013-03-20 08:03:00,21.0,9.0,30.28,NNW,340,14.0,21.0,57,-99.99,,,-99.99,,2013-03-20 13:03:00,
2013-03-20 08:12:00,21.0,9.0,30.28,NNW,340,14.0,21.0,57,-99.99,,,-99.99,,2013-03-20 13:12:00,
2013-03-20 08:22:00,21.0,10.0,30.28,NNW,330,13.0,16.0,62,-99.99,,,-99.99,,2013-03-20 13:22:00,
2013-03-20 08:32:00,23.0,10.0,30.29,NW,320,10.0,-999.0,57,-99.99,,,-99.99,,2013-03-20 13:32:00,
2013-03-20 08:42:00,23.0,10.0,30.29,NNW,330,12.0,21.0,57,-99.99,,,-99.99,,2013-03-20 13:42:00,
2013-03-20 08:53:00,23.0,10.0,30.29,NNW,340,16.0,23.0,57,-99.99,,,-99.99,,2013-03-20 13:53:00,
2013-03-20 09:02:00,23.0,10.0,30.29,NNW,330,14.0,21.0,57,-99.99,,,-99.99,,2013-03-20 14:02:00,
2013-03-20 09:12:00,23.0,10.0,30.29,NNW,330,14.0,21.0,57,-99.99,,,-99.99,,2013-03-20 14:12:00,
2013-03-20 09:22:00,25.0,10.0,30.29,NW,320,14.0,-999.0,53,-99.99,,,-99.99,,2013-03-20 14:22:00,
2013-03-20 09:33:00,25.0,10.0,30.29,NW,320,12.0,18.0,53,-99.99,,,-99.99,,2013-03-20 14:33:00,
2013-03-20 09:42:00,25.0,10.0,30.29,NW,320,16.0,20.0,53,-99.99,,,-99.99,,2013-03-20 14:42:00,
2013-03-20 09:52:00,25.0,12.0,30.29,NW,310,15.0,21.0,58,-99.99,,,-99.99,,2013-03-20 14:52:00,
2013-03-20 10:02:00,25.0,12.0,30.29,NNW,330,15.0,20.0,58,-99.99,,,-99.99,,2013-03-20 15:02:00,
2013-03-20 10:12:00,25.0,12.0,30.29,NNW,330,15.0,20.0,58,-99.99,,,-99.99,,2013-03-20 15:12:00,
2013-03-20 10:22:00,27.0,12.0,30.29,NW,310,16.0,21.0,54,-99.99,,,-99.99,,2013-03-20 15:22:00,
2013-03-20 10:33:00,27.0,12.0,30.29,NW,310,16.0,21.0,54,-99.99,,,-99.99,,2013-03-20 15:33:00,
2013-03-20 10:43:00,27.0,12.0,30.29,NW,310,16.0,21.0,54,-99.99,,,-99.99,,2013-03-20 15:43:00,
2013-03-20 10:53:00,27.0,10.0,30.29,NW,320,14.0,21.0,49,-99.99,,,-99.99,,2013-03-20 15:53:00,
2013-03-20 11:03:00,27.0,10.0,30.29,NNW,330,14.0,20.0,49,-99.99,,,-99.99,,2013-03-20 16:03:00,
2013-03-20 11:12:00,27.0,10.0,30.29,NNW,330,14.0,20.0,49,-99.99,,,-99.99,,2013-03-20 16:12:00,
2013-03-20 11:23:00,27.0,10.0,30.29,NNW,330,14.0,20.0,49,-99.99,,,-99.99,,2013-03-20 16:23:00,
2013-03-20 11:32:00,27.0,10.0,30.29,WNW,300,16.0,23.0,49,-99.99,,,-99.99,,2013-03-20 16:32:00,
2013-03-20 11:42:00,28.0,9.0,30.29,NW,320,13.0,20.0,42,-99.99,,,-99.99,,2013-03-20 16:42:00,
2013-03-20 11:53:00,28.0,7.0,30.28,NW,310,9.0,22.0,39,-99.99,,,-99.99,,2013-03-20 16:53:00,
2013-03-20 12:03:00,28.0,9.0,30.28,NW,310,10.0,16.0,42,-99.99,,,-99.99,,2013-03-20 17:03:00,
2013-03-20 12:12:00,28.0,9.0,30.28,NW,310,10.0,16.0,42,-99.99,,,-99.99,,2013-03-20 17:12:00,
2013-03-20 12:22:00,28.0,9.0,30.28,NW,310,10.0,16.0,42,-99.99,,,-99.99,,2013-03-20 17:22:00,
2013-03-20 12:32:00,28.0,9.0,30.28,NW,310,10.0,16.0,42,-99.99,,,-99.99,,2013-03-20 17:32:00,
2013-03-20 12:42:00,28.0,9.0,30.28,NW,310,10.0,16.0,42,-99.99,,,-99.99,,2013-03-20 17:42:00,
2013-03-20 12:53:00,28.0,9.0,30.28,WNW,300,18.0,24.0,42,-99.99,,,-99.99,,2013-03-20 17:53:00,
2013-03-20 13:02:00,28.0,10.0,30.27,WNW,290,18.0,24.0,46,-99.99,,,-99.99,,2013-03-20 18:02:00,
2013-03-20 13:12:00,28.0,10.0,30.27,WNW,290,18.0,24.0,46,-99.99,,,-99.99,,2013-03-20 18:12:00,
2013-03-20 13:22:00,30.0,5.0,30.26,WNW,300,16.0,23.0,33,-99.99,,,-99.99,,2013-03-20 18:22:00,
2013-03-20 13:33:00,30.0,5.0,30.26,West,280,14.0,21.0,33,-99.99,,,-99.99,,2013-03-20 18:33:00,
2013-03-20 13:42:00,30.0,5.0,30.26,West,280,14.0,21.0,33,-99.99,,,-99.99,,2013-03-20 18:42:00,
2013-03-20 13:53:00,30.0,5.0,30.26,West,280,14.0,21.0,33,-99.99,,,-99.99,,2013-03-20 18:53:00,
2013-03-20 14:02:00,30.0,3.0,30.25,West,280,17.0,25.0,31,-99.99,,,-99.99,,2013-03-20 19:02:00,
2013-03-20 14:12:00,30.0,3.0,30.25,West,280,17.0,25.0,31,-99.99,,,-99.99,,2013-03-20 19:12:00,
2013-03-20 14:22:00,30.0,1.0,30.24,NW,310,15.0,24.0,28,-99.99,,,-99.99,,2013-03-20 19:22:00,
2013-03-20 14:32:00,30.0,1.0,30.24,NW,310,15.0,24.0,28,-99.99,,,-99.99,,2013-03-20 19:32:00,
2013-03-20 14:42:00,32.0,5.0,30.23,WNW,290,17.0,25.0,31,-99.99,,,-99.99,,2013-03-20 19:42:00,
2013-03-20 14:53:00,32.0,1.0,30.23,NW,310,17.0,25.0,26,-99.99,,,-99.99,,2013-03-20 19:53:00,
2013-03-20 15:02:00,32.0,1.0,30.23,NW,310,17.0,25.0,26,-99.99,,,-99.99,,2013-03-20 20:02:00,
2013-03-20 15:13:00,32.0,1.0,30.23,NW,310,17.0,25.0,26,-99.99,,,-99.99,,2013-03-20 20:13:00,
2013-03-20 15:22:00,32.0,5.0,30.21,NW,310,16.0,24.0,31,-99.99,,,-99.99,,2013-03-20 20:22:00,
2013-03-20 15:32:00,32.0,3.0,30.20,WNW,290,18.0,25.0,28,-99.99,,,-99.99,,2013-03-20 20:32:00,
2013-03-20 15:42:00,32.0,3.0,30.20,West,270,15.0,-999.0,28,-99.99,,,-99.99,,2013-03-20 20:42:00,
2013-03-20 15:53:00,34.0,5.0,30.19,WNW,290,22.0,27.0,29,-99.99,,,-99.99,,2013-03-20 20:53:00,
2013-03-20 16:02:00,34.0,3.0,30.19,WNW,300,15.0,27.0,26,-99.99,,,-99.99,,2013-03-20 21:02:00,
2013-03-20 16:12:00,34.0,3.0,30.19,WNW,300,15.0,27.0,26,-99.99,,,-99.99,,2013-03-20 21:12:00,
2013-03-20 16:22:00,34.0,3.0,30.18,WNW,290,18.0,23.0,26,-99.99,,,-99.99,,2013-03-20 21:22:00,
2013-03-20 16:33:00,34.0,3.0,30.18,West,280,16.0,25.0,26,-99.99,,,-99.99,,2013-03-20 21:33:00,
2013-03-20 16:42:00,34.0,3.0,30.18,NW,310,13.0,21.0,26,-99.99,,,-99.99,,2013-03-20 21:42:00,
2013-03-20 16:53:00,34.0,3.0,30.18,WNW,300,17.0,27.0,26,-99.99,,,-99.99,,2013-03-20 21:53:00,
2013-03-20 17:03:00,34.0,3.0,30.17,NW,310,20.0,29.0,26,-99.99,,,-99.99,,2013-03-20 22:03:00,
2013-03-20 17:12:00,34.0,3.0,30.17,NW,310,20.0,29.0,26,-99.99,,,-99.99,,2013-03-20 22:12:00,
2013-03-20 17:23:00,32.0,3.0,30.17,NW,310,16.0,22.0,28,-99.99,,,-99.99,,2013-03-20 22:23:00,
2013-03-20 17:32:00,32.0,3.0,30.17,NW,310,16.0,22.0,28,-99.99,,,-99.99,,2013-03-20 22:32:00,
2013-03-20 17:42:00,34.0,3.0,30.16,NW,310,15.0,22.0,26,-99.99,,,-99.99,,2013-03-20 22:42:00,
2013-03-20 17:52:00,32.0,3.0,30.16,WNW,300,13.0,20.0,28,-99.99,,,-99.99,,2013-03-20 22:52:00,
2013-03-20 18:02:00,34.0,3.0,30.16,WNW,290,15.0,21.0,26,-99.99,,,-99.99,,2013-03-20 23:02:00,
2013-03-20 18:12:00,34.0,3.0,30.16,WNW,290,15.0,21.0,26,-99.99,,,-99.99,,2013-03-20 23:12:00,
2013-03-20 18:22:00,32.0,3.0,30.16,NW,310,12.0,23.0,28,-99.99,,,-99.99,,2013-03-20 23:22:00,
2013-03-20 18:32:00,32.0,3.0,30.16,WNW,290,13.0,22.0,28,-99.99,,,-99.99,,2013-03-20 23:32:00,
2013-03-20 18:42:00,32.0,3.0,30.16,NW,310,14.0,23.0,28,-99.99,,,-99.99,,2013-03-20 23:42:00,
2013-03-20 18:53:00,32.0,3.0,30.16,WNW,300,10.0,20.0,28,-99.99,,,-99.99,,2013-03-20 23:53:00,
2013-03-20 19:02:00,32.0,3.0,30.16,WNW,300,13.0,22.0,28,-99.99,,,-99.99,,2013-03-21 00:02:00,
2013-03-20 19:12:00,32.0,3.0,30.16,WNW,300,13.0,22.0,28,-99.99,,,-99.99,,2013-03-21 00:12:00,
2013-03-20 19:22:00,30.0,3.0,30.16,NW,320,12.0,21.0,31,-99.99,,,-99.99,,2013-03-21 00:22:00,
2013-03-20 19:32:00,30.0,5.0,30.15,NW,320,10.0,-999.0,33,-99.99,,,-99.99,,2013-03-21 00:32:00,
2013-03-20 19:42:00,30.0,5.0,30.15,WNW,300,10.0,-999.0,33,-99.99,,,-99.99,,2013-03-21 00:42:00,
2013-03-20 19:52:00,28.0,5.0,30.15,NW,310,10.0,-999.0,36,-99.99,,,-99.99,,2013-03-21 00:52:00,
2013-03-20 20:02:00,28.0,5.0,30.15,NW,310,9.0,-999.0,36,-99.99,,,-99.99,,2013-03-21 01:02:00,
2013-03-20 20:12:00,28.0,5.0,30.15,NW,310,9.0,-999.0,36,-99.99,,,-99.99,,2013-03-21 01:12:00,
2013-03-20 20:22:00,28.0,7.0,30.14,NW,310,8.0,-999.0,39,-99.99,,,-99.99,,2013-03-21 01:22:00,
2013-03-20 20:32:00,28.0,7.0,30.14,NW,320,7.0,-999.0,39,-99.99,,,-99.99,,2013-03-21 01:32:00,
2013-03-20 20:42:00,27.0,7.0,30.14,NW,310,7.0,-999.0,42,-99.99,,,-99.99,,2013-03-21 01:42:00,
2013-03-20 20:53:00,27.0,7.0,30.14,NW,310,6.0,-999.0,42,-99.99,,,-99.99,,2013-03-21 01:53:00,
2013-03-20 21:02:00,27.0,9.0,30.14,NW,320,6.0,-999.0,46,-99.99,,,-99.99,,2013-03-21 02:02:00,
2013-03-20 21:12:00,27.0,9.0,30.14,NW,320,6.0,-999.0,46,-99.99,,,-99.99,,2013-03-21 02:12:00,
2013-03-20 21:22:00,25.0,10.0,30.14,NW,320,3.0,-999.0,53,-99.99,,,-99.99,,2013-03-21 02:22:00,
2013-03-20 21:32:00,25.0,9.0,30.13,NW,320,3.0,-999.0,49,-99.99,,,-99.99,,2013-03-21 02:32:00,
2013-03-20 21:42:00,25.0,9.0,30.13,NW,320,3.0,-999.0,49,-99.99,,,-99.99,,2013-03-21 02:42:00,
2013-03-20 21:52:00,25.0,9.0,30.13,NW,320,3.0,-999.0,49,-99.99,,,-99.99,,2013-03-21 02:52:00,
2013-03-20 22:02:00,25.0,9.0,30.13,NW,320,6.0,-999.0,49,-99.99,,,-99.99,,2013-03-21 03:02:00,
2013-03-20 22:12:00,25.0,9.0,30.13,NW,320,6.0,-999.0,49,-99.99,,,-99.99,,2013-03-21 03:12:00,
2013-03-20 22:22:00,25.0,9.0,30.13,NW,320,6.0,-999.0,49,-99.99,,,-99.99,,2013-03-21 03:22:00,
2013-03-20 22:33:00,25.0,9.0,30.13,NNW,340,7.0,-999.0,49,-99.99,,,-99.99,,2013-03-21 03:33:00,
2013-03-20 22:43:00,25.0,9.0,30.13,NNW,340,7.0,-999.0,49,-99.99,,,-99.99,,2013-03-21 03:43:00,
2013-03-20 22:53:00,25.0,9.0,30.13,NNW,340,7.0,-999.0,49,-99.99,,,-99.99,,2013-03-21 03:53:00,
2013-03-20 23:03:00,25.0,9.0,30.13,NNW,340,7.0,-999.0,49,-99.99,,,-99.99,,2013-03-21 04:03:00,
2013-03-20 23:13:00,25.0,9.0,30.13,NNW,340,7.0,-999.0,49,-99.99,,,-99.99,,2013-03-21 04:13:00,
2013-03-20 23:23:00,23.0,10.0,30.13,NNW,330,7.0,-999.0,57,-99.99,,,-99.99,,2013-03-21 04:23:00,
2013-03-20 23:33:00,23.0,9.0,30.13,NNW,340,6.0,-999.0,53,-99.99,,,-99.99,,2013-03-21 04:33:00,
2013-03-20 23:43:00,23.0,9.0,30.13,NNW,340,6.0,-999.0,53,-99.99,,,-99.99,,2013-03-21 04:43:00,
2013-03-20 23:53:00,23.0,9.0,30.13,NNW,340,6.0,-999.0,53,-99.99,,,-99.99,,2013-03-21 04:53:00,